sensor_id;sensor_type;location;lat;lon;timestamp;P1;durP1;ratioP1;P2;durP2;ratioP2
26335;SDS011;14047;50.936;4.654;2023-08-20T00:01:58;5.75;;;1.92;;
26335;SDS011;14047;50.936;4.654;2023-08-20T00:04:27;7.95;;;2.35;;
26335;SDS011;14047;50.936;4.654;2023-08-20T00:06:55;10.38;;;2.35;;
26335;SDS011;14047;50.936;4.654;2023-08-20T00:09:21;5.78;;;1.88;;
26335;SDS011;14047;50.936;4.654;2023-08-20T00:11:48;9.57;;;1.90;;
26335;SDS011;14047;50.936;4.654;2023-08-20T00:14:15;6.88;;;2.20;;
26335;SDS011;14047;50.936;4.654;2023-08-20T00:16:42;7.20;;;2.35;;
26335;SDS011;14047;50.936;4.654;2023-08-20T00:19:09;6.30;;;2.38;;
26335;SDS011;14047;50.936;4.654;2023-08-20T00:21:39;5.45;;;1.92;;
26335;SDS011;14047;50.936;4.654;2023-08-20T00:24:07;6.78;;;2.20;;
26335;SDS011;14047;50.936;4.654;2023-08-20T00:26:34;6.38;;;1.85;;
26335;SDS011;14047;50.936;4.654;2023-08-20T00:29:00;6.38;;;1.92;;
26335;SDS011;14047;50.936;4.654;2023-08-20T00:31:26;8.60;;;2.20;;
26335;SDS011;14047;50.936;4.654;2023-08-20T00:33:52;8.35;;;1.77;;
26335;SDS011;14047;50.936;4.654;2023-08-20T00:36:19;8.02;;;2.30;;
26335;SDS011;14047;50.936;4.654;2023-08-20T00:38:45;7.13;;;2.60;;
26335;SDS011;14047;50.936;4.654;2023-08-20T00:41:11;8.10;;;2.55;;
26335;SDS011;14047;50.936;4.654;2023-08-20T00:43:37;6.85;;;2.10;;
26335;SDS011;14047;50.936;4.654;2023-08-20T00:46:05;7.00;;;1.95;;
26335;SDS011;14047;50.936;4.654;2023-08-20T00:48:32;4.93;;;2.13;;
26335;SDS011;14047;50.936;4.654;2023-08-20T00:50:59;7.68;;;2.40;;
26335;SDS011;14047;50.936;4.654;2023-08-20T00:53:25;6.75;;;2.40;;
26335;SDS011;14047;50.936;4.654;2023-08-20T00:55:51;8.48;;;2.50;;
26335;SDS011;14047;50.936;4.654;2023-08-20T00:58:17;10.93;;;2.20;;
26335;SDS011;14047;50.936;4.654;2023-08-20T01:00:43;8.82;;;2.30;;
26335;SDS011;14047;50.936;4.654;2023-08-20T01:03:10;8.23;;;2.10;;
26335;SDS011;14047;50.936;4.654;2023-08-20T01:05:39;7.90;;;2.00;;
26335;SDS011;14047;50.936;4.654;2023-08-20T01:08:20;6.97;;;2.10;;
26335;SDS011;14047;50.936;4.654;2023-08-20T01:10:57;6.57;;;2.03;;
26335;SDS011;14047;50.936;4.654;2023-08-20T01:13:35;5.65;;;2.13;;
26335;SDS011;14047;50.936;4.654;2023-08-20T01:16:01;7.97;;;2.08;;
26335;SDS011;14047;50.936;4.654;2023-08-20T01:18:27;8.95;;;2.38;;
26335;SDS011;14047;50.936;4.654;2023-08-20T01:20:58;6.50;;;2.03;;
26335;SDS011;14047;50.936;4.654;2023-08-20T01:28:44;6.05;;;1.85;;
26335;SDS011;14047;50.936;4.654;2023-08-20T01:31:11;6.28;;;2.33;;
26335;SDS011;14047;50.936;4.654;2023-08-20T01:33:38;6.75;;;2.92;;
26335;SDS011;14047;50.936;4.654;2023-08-20T01:36:06;7.32;;;2.60;;
26335;SDS011;14047;50.936;4.654;2023-08-20T01:38:36;6.43;;;1.92;;
26335;SDS011;14047;50.936;4.654;2023-08-20T01:41:03;4.97;;;2.10;;
26335;SDS011;14047;50.936;4.654;2023-08-20T01:43:29;9.35;;;2.20;;
26335;SDS011;14047;50.936;4.654;2023-08-20T01:45:55;6.78;;;2.30;;
26335;SDS011;14047;50.936;4.654;2023-08-20T01:48:21;4.68;;;2.03;;
26335;SDS011;14047;50.936;4.654;2023-08-20T01:50:47;8.95;;;2.22;;
26335;SDS011;14047;50.936;4.654;2023-08-20T01:53:13;4.43;;;2.05;;
26335;SDS011;14047;50.936;4.654;2023-08-20T01:55:41;8.00;;;2.13;;
26335;SDS011;14047;50.936;4.654;2023-08-20T01:58:07;4.65;;;1.92;;
26335;SDS011;14047;50.936;4.654;2023-08-20T02:00:33;10.07;;;2.67;;
26335;SDS011;14047;50.936;4.654;2023-08-20T02:02:59;8.05;;;2.03;;
26335;SDS011;14047;50.936;4.654;2023-08-20T02:05:25;7.00;;;2.30;;
26335;SDS011;14047;50.936;4.654;2023-08-20T02:07:51;9.98;;;2.38;;
26335;SDS011;14047;50.936;4.654;2023-08-20T02:10:17;9.25;;;2.30;;
26335;SDS011;14047;50.936;4.654;2023-08-20T02:12:43;5.22;;;2.00;;
26335;SDS011;14047;50.936;4.654;2023-08-20T02:15:09;8.77;;;1.90;;
26335;SDS011;14047;50.936;4.654;2023-08-20T02:17:36;4.63;;;2.35;;
26335;SDS011;14047;50.936;4.654;2023-08-20T02:20:03;6.75;;;1.48;;
26335;SDS011;14047;50.936;4.654;2023-08-20T02:22:29;8.52;;;2.08;;
26335;SDS011;14047;50.936;4.654;2023-08-20T02:24:55;9.77;;;1.80;;
26335;SDS011;14047;50.936;4.654;2023-08-20T02:27:21;5.45;;;2.38;;
26335;SDS011;14047;50.936;4.654;2023-08-20T02:29:48;7.55;;;2.20;;
26335;SDS011;14047;50.936;4.654;2023-08-20T02:32:14;6.80;;;2.00;;
26335;SDS011;14047;50.936;4.654;2023-08-20T02:34:40;6.85;;;2.45;;
26335;SDS011;14047;50.936;4.654;2023-08-20T02:37:06;7.63;;;2.08;;
26335;SDS011;14047;50.936;4.654;2023-08-20T02:39:32;7.85;;;2.47;;
26335;SDS011;14047;50.936;4.654;2023-08-20T02:41:58;6.57;;;2.63;;
26335;SDS011;14047;50.936;4.654;2023-08-20T02:44:26;6.65;;;2.53;;
26335;SDS011;14047;50.936;4.654;2023-08-20T02:46:53;4.90;;;2.20;;
26335;SDS011;14047;50.936;4.654;2023-08-20T02:49:19;13.88;;;2.78;;
26335;SDS011;14047;50.936;4.654;2023-08-20T02:51:45;6.88;;;2.67;;
26335;SDS011;14047;50.936;4.654;2023-08-20T02:54:11;6.75;;;2.25;;
26335;SDS011;14047;50.936;4.654;2023-08-20T02:56:37;8.23;;;2.45;;
26335;SDS011;14047;50.936;4.654;2023-08-20T02:59:03;8.93;;;2.70;;
26335;SDS011;14047;50.936;4.654;2023-08-20T03:01:30;8.40;;;2.35;;
26335;SDS011;14047;50.936;4.654;2023-08-20T03:03:56;6.38;;;2.33;;
26335;SDS011;14047;50.936;4.654;2023-08-20T03:06:22;9.70;;;3.17;;
26335;SDS011;14047;50.936;4.654;2023-08-20T03:08:48;8.95;;;2.80;;
26335;SDS011;14047;50.936;4.654;2023-08-20T03:11:14;9.13;;;2.75;;
26335;SDS011;14047;50.936;4.654;2023-08-20T03:13:40;9.00;;;2.80;;
26335;SDS011;14047;50.936;4.654;2023-08-20T03:16:06;9.00;;;2.50;;
26335;SDS011;14047;50.936;4.654;2023-08-20T03:18:32;8.43;;;3.58;;
26335;SDS011;14047;50.936;4.654;2023-08-20T03:20:58;8.90;;;3.00;;
26335;SDS011;14047;50.936;4.654;2023-08-20T03:23:24;10.63;;;3.03;;
26335;SDS011;14047;50.936;4.654;2023-08-20T03:25:50;8.70;;;3.08;;
26335;SDS011;14047;50.936;4.654;2023-08-20T03:28:17;5.18;;;2.83;;
26335;SDS011;14047;50.936;4.654;2023-08-20T03:30:44;9.45;;;3.28;;
26335;SDS011;14047;50.936;4.654;2023-08-20T03:33:14;10.95;;;2.80;;
26335;SDS011;14047;50.936;4.654;2023-08-20T03:35:42;10.35;;;2.92;;
26335;SDS011;14047;50.936;4.654;2023-08-20T03:38:08;10.50;;;2.95;;
26335;SDS011;14047;50.936;4.654;2023-08-20T03:40:34;5.93;;;2.80;;
26335;SDS011;14047;50.936;4.654;2023-08-20T03:43:01;8.57;;;3.05;;
26335;SDS011;14047;50.936;4.654;2023-08-20T03:45:29;12.40;;;3.00;;
26335;SDS011;14047;50.936;4.654;2023-08-20T03:47:56;9.77;;;3.05;;
26335;SDS011;14047;50.936;4.654;2023-08-20T03:50:22;8.77;;;3.67;;
26335;SDS011;14047;50.936;4.654;2023-08-20T03:52:48;14.57;;;3.20;;
26335;SDS011;14047;50.936;4.654;2023-08-20T03:55:14;8.25;;;2.80;;
26335;SDS011;14047;50.936;4.654;2023-08-20T03:57:40;10.98;;;3.38;;
26335;SDS011;14047;50.936;4.654;2023-08-20T04:00:06;6.95;;;3.25;;
26335;SDS011;14047;50.936;4.654;2023-08-20T04:02:43;12.75;;;3.70;;
26335;SDS011;14047;50.936;4.654;2023-08-20T04:05:09;12.77;;;2.90;;
26335;SDS011;14047;50.936;4.654;2023-08-20T04:07:35;6.28;;;3.10;;
26335;SDS011;14047;50.936;4.654;2023-08-20T04:10:01;7.15;;;3.38;;
26335;SDS011;14047;50.936;4.654;2023-08-20T04:12:27;8.65;;;3.50;;
26335;SDS011;14047;50.936;4.654;2023-08-20T04:14:55;11.52;;;3.58;;
26335;SDS011;14047;50.936;4.654;2023-08-20T04:17:22;8.07;;;2.90;;
26335;SDS011;14047;50.936;4.654;2023-08-20T04:19:47;7.78;;;3.20;;
26335;SDS011;14047;50.936;4.654;2023-08-20T04:22:13;9.13;;;2.70;;
26335;SDS011;14047;50.936;4.654;2023-08-20T04:24:40;8.57;;;3.17;;
26335;SDS011;14047;50.936;4.654;2023-08-20T04:27:06;14.05;;;3.20;;
26335;SDS011;14047;50.936;4.654;2023-08-20T04:29:33;7.28;;;2.58;;
26335;SDS011;14047;50.936;4.654;2023-08-20T04:31:59;7.63;;;2.53;;
26335;SDS011;14047;50.936;4.654;2023-08-20T04:34:25;10.23;;;3.50;;
26335;SDS011;14047;50.936;4.654;2023-08-20T04:36:52;7.00;;;2.72;;
26335;SDS011;14047;50.936;4.654;2023-08-20T04:39:19;6.45;;;2.58;;
26335;SDS011;14047;50.936;4.654;2023-08-20T04:41:49;7.32;;;2.92;;
26335;SDS011;14047;50.936;4.654;2023-08-20T04:44:17;5.15;;;2.67;;
26335;SDS011;14047;50.936;4.654;2023-08-20T04:46:44;9.38;;;3.08;;
26335;SDS011;14047;50.936;4.654;2023-08-20T04:49:10;8.63;;;2.95;;
26335;SDS011;14047;50.936;4.654;2023-08-20T04:51:37;11.18;;;3.15;;
26335;SDS011;14047;50.936;4.654;2023-08-20T04:54:03;8.32;;;3.03;;
26335;SDS011;14047;50.936;4.654;2023-08-20T04:56:29;9.80;;;2.72;;
26335;SDS011;14047;50.936;4.654;2023-08-20T04:58:56;5.63;;;2.78;;
26335;SDS011;14047;50.936;4.654;2023-08-20T05:01:48;6.68;;;3.00;;
26335;SDS011;14047;50.936;4.654;2023-08-20T05:04:16;6.55;;;3.05;;
26335;SDS011;14047;50.936;4.654;2023-08-20T05:06:42;5.68;;;2.78;;
26335;SDS011;14047;50.936;4.654;2023-08-20T05:09:08;15.80;;;2.80;;
26335;SDS011;14047;50.936;4.654;2023-08-20T05:11:34;5.55;;;2.47;;
26335;SDS011;14047;50.936;4.654;2023-08-20T05:14:00;4.88;;;2.58;;
26335;SDS011;14047;50.936;4.654;2023-08-20T05:16:26;8.23;;;2.78;;
26335;SDS011;14047;50.936;4.654;2023-08-20T05:18:52;3.70;;;2.53;;
26335;SDS011;14047;50.936;4.654;2023-08-20T05:21:18;7.15;;;3.00;;
26335;SDS011;14047;50.936;4.654;2023-08-20T05:23:44;8.55;;;3.00;;
26335;SDS011;14047;50.936;4.654;2023-08-20T05:26:11;6.97;;;2.83;;
26335;SDS011;14047;50.936;4.654;2023-08-20T05:28:37;5.32;;;2.60;;
26335;SDS011;14047;50.936;4.654;2023-08-20T05:31:02;9.07;;;2.70;;
26335;SDS011;14047;50.936;4.654;2023-08-20T05:33:30;4.90;;;2.58;;
26335;SDS011;14047;50.936;4.654;2023-08-20T05:35:56;14.63;;;2.95;;
26335;SDS011;14047;50.936;4.654;2023-08-20T05:38:22;7.60;;;2.40;;
26335;SDS011;14047;50.936;4.654;2023-08-20T05:40:50;15.90;;;2.63;;
26335;SDS011;14047;50.936;4.654;2023-08-20T05:43:16;6.38;;;3.10;;
26335;SDS011;14047;50.936;4.654;2023-08-20T05:45:42;6.57;;;2.80;;
26335;SDS011;14047;50.936;4.654;2023-08-20T05:48:12;6.85;;;3.20;;
26335;SDS011;14047;50.936;4.654;2023-08-20T05:50:38;6.28;;;3.03;;
26335;SDS011;14047;50.936;4.654;2023-08-20T05:53:04;7.47;;;3.25;;
26335;SDS011;14047;50.936;4.654;2023-08-20T05:55:31;10.35;;;4.32;;
26335;SDS011;14047;50.936;4.654;2023-08-20T05:57:57;9.10;;;2.65;;
26335;SDS011;14047;50.936;4.654;2023-08-20T06:00:23;5.35;;;2.88;;
26335;SDS011;14047;50.936;4.654;2023-08-20T06:02:49;13.95;;;3.33;;
26335;SDS011;14047;50.936;4.654;2023-08-20T06:05:16;7.10;;;3.00;;
26335;SDS011;14047;50.936;4.654;2023-08-20T06:07:42;7.30;;;3.00;;
26335;SDS011;14047;50.936;4.654;2023-08-20T06:10:08;9.60;;;2.58;;
26335;SDS011;14047;50.936;4.654;2023-08-20T06:12:34;10.13;;;3.40;;
26335;SDS011;14047;50.936;4.654;2023-08-20T06:15:00;7.72;;;2.63;;
26335;SDS011;14047;50.936;4.654;2023-08-20T06:17:29;11.32;;;3.00;;
26335;SDS011;14047;50.936;4.654;2023-08-20T06:19:55;9.85;;;2.80;;
26335;SDS011;14047;50.936;4.654;2023-08-20T06:22:21;6.88;;;3.10;;
26335;SDS011;14047;50.936;4.654;2023-08-20T06:24:47;8.82;;;2.55;;
26335;SDS011;14047;50.936;4.654;2023-08-20T06:27:16;10.35;;;2.80;;
26335;SDS011;14047;50.936;4.654;2023-08-20T06:29:42;10.73;;;3.20;;
26335;SDS011;14047;50.936;4.654;2023-08-20T06:32:08;7.35;;;2.90;;
26335;SDS011;14047;50.936;4.654;2023-08-20T06:34:34;10.38;;;2.90;;
26335;SDS011;14047;50.936;4.654;2023-08-20T06:37:02;9.43;;;2.40;;
26335;SDS011;14047;50.936;4.654;2023-08-20T06:39:31;9.40;;;2.53;;
26335;SDS011;14047;50.936;4.654;2023-08-20T06:41:57;7.20;;;2.50;;
26335;SDS011;14047;50.936;4.654;2023-08-20T06:44:29;12.30;;;2.83;;
26335;SDS011;14047;50.936;4.654;2023-08-20T06:46:55;7.90;;;2.55;;
26335;SDS011;14047;50.936;4.654;2023-08-20T06:49:21;6.00;;;2.30;;
26335;SDS011;14047;50.936;4.654;2023-08-20T06:51:47;9.77;;;2.70;;
26335;SDS011;14047;50.936;4.654;2023-08-20T06:54:14;5.65;;;2.30;;
26335;SDS011;14047;50.936;4.654;2023-08-20T06:56:41;11.05;;;2.20;;
26335;SDS011;14047;50.936;4.654;2023-08-20T06:59:07;8.73;;;2.63;;
26335;SDS011;14047;50.936;4.654;2023-08-20T07:01:33;6.18;;;2.20;;
26335;SDS011;14047;50.936;4.654;2023-08-20T07:03:59;6.72;;;1.75;;
26335;SDS011;14047;50.936;4.654;2023-08-20T07:06:25;7.82;;;2.40;;
26335;SDS011;14047;50.936;4.654;2023-08-20T07:08:51;9.70;;;1.80;;
26335;SDS011;14047;50.936;4.654;2023-08-20T07:11:17;6.53;;;1.48;;
26335;SDS011;14047;50.936;4.654;2023-08-20T07:13:43;5.57;;;1.60;;
26335;SDS011;14047;50.936;4.654;2023-08-20T07:16:09;7.68;;;1.83;;
26335;SDS011;14047;50.936;4.654;2023-08-20T07:18:35;6.80;;;2.25;;
26335;SDS011;14047;50.936;4.654;2023-08-20T07:21:01;4.95;;;1.48;;
26335;SDS011;14047;50.936;4.654;2023-08-20T07:23:27;4.63;;;2.08;;
26335;SDS011;14047;50.936;4.654;2023-08-20T07:26:03;3.90;;;1.48;;
26335;SDS011;14047;50.936;4.654;2023-08-20T07:28:34;6.13;;;1.70;;
26335;SDS011;14047;50.936;4.654;2023-08-20T07:31:20;7.95;;;2.72;;
26335;SDS011;14047;50.936;4.654;2023-08-20T07:33:46;7.90;;;1.40;;
26335;SDS011;14047;50.936;4.654;2023-08-20T07:36:13;9.65;;;1.30;;
26335;SDS011;14047;50.936;4.654;2023-08-20T07:38:40;7.68;;;2.47;;
26335;SDS011;14047;50.936;4.654;2023-08-20T07:41:11;4.90;;;1.27;;
26335;SDS011;14047;50.936;4.654;2023-08-20T07:43:37;8.02;;;1.38;;
26335;SDS011;14047;50.936;4.654;2023-08-20T07:46:04;5.57;;;2.35;;
26335;SDS011;14047;50.936;4.654;2023-08-20T07:48:31;3.10;;;1.05;;
26335;SDS011;14047;50.936;4.654;2023-08-20T07:50:57;6.40;;;1.25;;
26335;SDS011;14047;50.936;4.654;2023-08-20T07:53:23;4.38;;;1.48;;
26335;SDS011;14047;50.936;4.654;2023-08-20T07:55:49;3.97;;;1.60;;
26335;SDS011;14047;50.936;4.654;2023-08-20T07:58:15;7.10;;;1.35;;
26335;SDS011;14047;50.936;4.654;2023-08-20T08:00:41;5.97;;;1.08;;
26335;SDS011;14047;50.936;4.654;2023-08-20T08:03:08;7.57;;;1.95;;
26335;SDS011;14047;50.936;4.654;2023-08-20T08:05:35;6.93;;;1.40;;
26335;SDS011;14047;50.936;4.654;2023-08-20T08:08:02;3.60;;;1.15;;
26335;SDS011;14047;50.936;4.654;2023-08-20T08:10:28;3.92;;;1.17;;
26335;SDS011;14047;50.936;4.654;2023-08-20T08:12:54;3.95;;;1.00;;
26335;SDS011;14047;50.936;4.654;2023-08-20T08:15:20;6.45;;;1.02;;
26335;SDS011;14047;50.936;4.654;2023-08-20T08:17:46;3.75;;;1.45;;
26335;SDS011;14047;50.936;4.654;2023-08-20T08:20:12;6.18;;;1.15;;
26335;SDS011;14047;50.936;4.654;2023-08-20T08:22:39;4.70;;;1.20;;
26335;SDS011;14047;50.936;4.654;2023-08-20T08:25:05;4.15;;;0.90;;
26335;SDS011;14047;50.936;4.654;2023-08-20T08:27:31;3.47;;;0.95;;
26335;SDS011;14047;50.936;4.654;2023-08-20T08:29:57;5.75;;;1.25;;
26335;SDS011;14047;50.936;4.654;2023-08-20T08:32:23;3.55;;;0.70;;
26335;SDS011;14047;50.936;4.654;2023-08-20T08:34:50;4.05;;;1.00;;
26335;SDS011;14047;50.936;4.654;2023-08-20T08:37:16;2.65;;;1.00;;
26335;SDS011;14047;50.936;4.654;2023-08-20T08:39:42;1.67;;;0.65;;
26335;SDS011;14047;50.936;4.654;2023-08-20T08:42:08;3.10;;;0.80;;
26335;SDS011;14047;50.936;4.654;2023-08-20T08:44:37;3.30;;;0.80;;
26335;SDS011;14047;50.936;4.654;2023-08-20T08:47:06;2.55;;;0.68;;
26335;SDS011;14047;50.936;4.654;2023-08-20T08:49:35;2.60;;;0.80;;
26335;SDS011;14047;50.936;4.654;2023-08-20T08:52:02;5.20;;;0.63;;
26335;SDS011;14047;50.936;4.654;2023-08-20T08:54:30;3.22;;;0.80;;
26335;SDS011;14047;50.936;4.654;2023-08-20T08:56:58;1.55;;;0.60;;
26335;SDS011;14047;50.936;4.654;2023-08-20T08:59:24;2.72;;;0.60;;
26335;SDS011;14047;50.936;4.654;2023-08-20T09:01:51;0.85;;;0.60;;
26335;SDS011;14047;50.936;4.654;2023-08-20T09:04:17;2.70;;;0.80;;
26335;SDS011;14047;50.936;4.654;2023-08-20T09:06:47;0.95;;;0.82;;
26335;SDS011;14047;50.936;4.654;2023-08-20T09:09:16;1.58;;;0.73;;
26335;SDS011;14047;50.936;4.654;2023-08-20T09:11:42;2.75;;;0.93;;
26335;SDS011;14047;50.936;4.654;2023-08-20T09:14:20;1.52;;;0.50;;
26335;SDS011;14047;50.936;4.654;2023-08-20T09:16:57;4.45;;;1.10;;
26335;SDS011;14047;50.936;4.654;2023-08-20T09:19:27;3.05;;;0.90;;
26335;SDS011;14047;50.936;4.654;2023-08-20T09:21:57;2.40;;;0.88;;
26335;SDS011;14047;50.936;4.654;2023-08-20T09:25:06;3.83;;;1.20;;
26335;SDS011;14047;50.936;4.654;2023-08-20T09:27:21;1.90;;;0.57;;
26335;SDS011;14047;50.936;4.654;2023-08-20T09:29:48;2.40;;;0.52;;
26335;SDS011;14047;50.936;4.654;2023-08-20T09:32:26;1.80;;;0.90;;
26335;SDS011;14047;50.936;4.654;2023-08-20T09:34:54;1.25;;;0.40;;
26335;SDS011;14047;50.936;4.654;2023-08-20T09:37:23;2.63;;;0.57;;
26335;SDS011;14047;50.936;4.654;2023-08-20T09:39:50;4.30;;;0.77;;
26335;SDS011;14047;50.936;4.654;2023-08-20T09:42:16;2.97;;;0.77;;
26335;SDS011;14047;50.936;4.654;2023-08-20T09:44:43;1.00;;;0.40;;
26335;SDS011;14047;50.936;4.654;2023-08-20T09:47:11;1.73;;;0.60;;
26335;SDS011;14047;50.936;4.654;2023-08-20T09:49:42;3.83;;;0.63;;
26335;SDS011;14047;50.936;4.654;2023-08-20T09:55:07;1.55;;;0.55;;
26335;SDS011;14047;50.936;4.654;2023-08-20T09:57:35;2.97;;;0.63;;
26335;SDS011;14047;50.936;4.654;2023-08-20T10:00:03;4.28;;;0.65;;
26335;SDS011;14047;50.936;4.654;2023-08-20T10:02:43;4.72;;;0.90;;
26335;SDS011;14047;50.936;4.654;2023-08-20T10:05:10;4.32;;;0.75;;
26335;SDS011;14047;50.936;4.654;2023-08-20T10:07:38;2.42;;;0.55;;
26335;SDS011;14047;50.936;4.654;2023-08-20T10:10:05;1.63;;;0.75;;
26335;SDS011;14047;50.936;4.654;2023-08-20T10:12:32;2.05;;;0.60;;
26335;SDS011;14047;50.936;4.654;2023-08-20T10:14:59;4.82;;;0.57;;
26335;SDS011;14047;50.936;4.654;2023-08-20T10:17:28;2.55;;;0.50;;
26335;SDS011;14047;50.936;4.654;2023-08-20T10:19:57;3.65;;;0.70;;
26335;SDS011;14047;50.936;4.654;2023-08-20T10:22:32;2.20;;;0.60;;
26335;SDS011;14047;50.936;4.654;2023-08-20T10:25:02;3.60;;;0.50;;
26335;SDS011;14047;50.936;4.654;2023-08-20T10:27:32;1.48;;;0.45;;
26335;SDS011;14047;50.936;4.654;2023-08-20T10:29:59;1.85;;;0.60;;
26335;SDS011;14047;50.936;4.654;2023-08-20T10:32:45;4.20;;;0.60;;
26335;SDS011;14047;50.936;4.654;2023-08-20T10:35:16;3.97;;;0.63;;
26335;SDS011;14047;50.936;4.654;2023-08-20T10:48:31;1.90;;;0.50;;
26335;SDS011;14047;50.936;4.654;2023-08-20T10:59:05;1.90;;;0.57;;
26335;SDS011;14047;50.936;4.654;2023-08-20T11:01:33;2.97;;;0.57;;
26335;SDS011;14047;50.936;4.654;2023-08-20T11:04:00;1.98;;;0.45;;
26335;SDS011;14047;50.936;4.654;2023-08-20T11:06:31;1.70;;;0.60;;
26335;SDS011;14047;50.936;4.654;2023-08-20T11:08:57;2.47;;;0.70;;
26335;SDS011;14047;50.936;4.654;2023-08-20T11:11:24;2.15;;;0.70;;
26335;SDS011;14047;50.936;4.654;2023-08-20T11:13:50;1.17;;;0.43;;
26335;SDS011;14047;50.936;4.654;2023-08-20T11:16:17;1.85;;;0.30;;
26335;SDS011;14047;50.936;4.654;2023-08-20T11:18:44;1.55;;;0.70;;
26335;SDS011;14047;50.936;4.654;2023-08-20T11:21:11;1.52;;;0.50;;
26335;SDS011;14047;50.936;4.654;2023-08-20T11:23:38;2.00;;;0.70;;
26335;SDS011;14047;50.936;4.654;2023-08-20T11:26:10;5.07;;;0.82;;
26335;SDS011;14047;50.936;4.654;2023-08-20T11:28:35;1.67;;;0.50;;
26335;SDS011;14047;50.936;4.654;2023-08-20T11:31:02;3.50;;;0.50;;
26335;SDS011;14047;50.936;4.654;2023-08-20T11:33:28;1.75;;;0.73;;
26335;SDS011;14047;50.936;4.654;2023-08-20T11:35:54;4.43;;;0.80;;
26335;SDS011;14047;50.936;4.654;2023-08-20T11:38:22;5.22;;;0.75;;
26335;SDS011;14047;50.936;4.654;2023-08-20T11:40:49;2.55;;;0.68;;
26335;SDS011;14047;50.936;4.654;2023-08-20T11:43:15;2.70;;;0.82;;
26335;SDS011;14047;50.936;4.654;2023-08-20T11:45:45;3.42;;;0.60;;
26335;SDS011;14047;50.936;4.654;2023-08-20T11:48:13;1.92;;;0.60;;
26335;SDS011;14047;50.936;4.654;2023-08-20T11:50:39;4.05;;;0.85;;
26335;SDS011;14047;50.936;4.654;2023-08-20T11:53:06;2.85;;;0.80;;
26335;SDS011;14047;50.936;4.654;2023-08-20T11:55:33;2.85;;;0.63;;
26335;SDS011;14047;50.936;4.654;2023-08-20T11:57:59;3.08;;;0.80;;
26335;SDS011;14047;50.936;4.654;2023-08-20T12:00:26;4.47;;;0.55;;
26335;SDS011;14047;50.936;4.654;2023-08-20T12:02:53;2.20;;;0.50;;
26335;SDS011;14047;50.936;4.654;2023-08-20T12:05:26;2.58;;;0.50;;
26335;SDS011;14047;50.936;4.654;2023-08-20T12:10:23;2.60;;;0.70;;
26335;SDS011;14047;50.936;4.654;2023-08-20T12:12:50;4.13;;;1.00;;
26335;SDS011;14047;50.936;4.654;2023-08-20T12:15:16;2.85;;;0.65;;
26335;SDS011;14047;50.936;4.654;2023-08-20T12:17:54;2.65;;;0.60;;
26335;SDS011;14047;50.936;4.654;2023-08-20T12:20:28;4.03;;;0.88;;
26335;SDS011;14047;50.936;4.654;2023-08-20T12:22:58;3.78;;;0.90;;
26335;SDS011;14047;50.936;4.654;2023-08-20T12:25:29;2.55;;;0.63;;
26335;SDS011;14047;50.936;4.654;2023-08-20T12:27:56;2.03;;;0.90;;
26335;SDS011;14047;50.936;4.654;2023-08-20T12:30:22;2.67;;;0.57;;
26335;SDS011;14047;50.936;4.654;2023-08-20T12:32:48;2.55;;;0.40;;
26335;SDS011;14047;50.936;4.654;2023-08-20T12:35:14;4.78;;;0.88;;
26335;SDS011;14047;50.936;4.654;2023-08-20T12:37:40;2.10;;;0.75;;
26335;SDS011;14047;50.936;4.654;2023-08-20T12:40:06;3.42;;;0.82;;
26335;SDS011;14047;50.936;4.654;2023-08-20T12:42:38;3.15;;;0.82;;
26335;SDS011;14047;50.936;4.654;2023-08-20T12:45:06;6.50;;;1.08;;
26335;SDS011;14047;50.936;4.654;2023-08-20T12:47:33;3.65;;;1.10;;
26335;SDS011;14047;50.936;4.654;2023-08-20T12:50:02;0.93;;;0.60;;
26335;SDS011;14047;50.936;4.654;2023-08-20T12:52:29;2.38;;;0.73;;
26335;SDS011;14047;50.936;4.654;2023-08-20T12:54:55;4.15;;;0.90;;
26335;SDS011;14047;50.936;4.654;2023-08-20T12:57:22;3.22;;;0.93;;
26335;SDS011;14047;50.936;4.654;2023-08-20T12:59:47;2.72;;;0.80;;
26335;SDS011;14047;50.936;4.654;2023-08-20T13:02:14;3.22;;;0.70;;
26335;SDS011;14047;50.936;4.654;2023-08-20T13:04:41;2.53;;;0.90;;
26335;SDS011;14047;50.936;4.654;2023-08-20T13:07:07;4.38;;;1.10;;
26335;SDS011;14047;50.936;4.654;2023-08-20T13:09:33;5.45;;;1.42;;
26335;SDS011;14047;50.936;4.654;2023-08-20T13:12:00;2.78;;;1.02;;
26335;SDS011;14047;50.936;4.654;2023-08-20T13:14:29;5.57;;;0.90;;
26335;SDS011;14047;50.936;4.654;2023-08-20T13:16:55;8.10;;;1.00;;
26335;SDS011;14047;50.936;4.654;2023-08-20T13:19:22;5.63;;;0.90;;
26335;SDS011;14047;50.936;4.654;2023-08-20T13:21:48;4.15;;;1.00;;
26335;SDS011;14047;50.936;4.654;2023-08-20T13:24:13;2.95;;;0.90;;
26335;SDS011;14047;50.936;4.654;2023-08-20T13:26:39;3.95;;;0.90;;
26335;SDS011;14047;50.936;4.654;2023-08-20T13:29:05;2.22;;;0.90;;
26335;SDS011;14047;50.936;4.654;2023-08-20T13:31:31;5.40;;;0.90;;
26335;SDS011;14047;50.936;4.654;2023-08-20T13:33:57;7.13;;;1.00;;
26335;SDS011;14047;50.936;4.654;2023-08-20T13:36:23;2.15;;;0.73;;
26335;SDS011;14047;50.936;4.654;2023-08-20T13:38:49;5.05;;;1.00;;
26335;SDS011;14047;50.936;4.654;2023-08-20T13:41:15;2.25;;;0.85;;
26335;SDS011;14047;50.936;4.654;2023-08-20T13:43:41;4.30;;;1.02;;
26335;SDS011;14047;50.936;4.654;2023-08-20T13:46:07;2.22;;;0.82;;
26335;SDS011;14047;50.936;4.654;2023-08-20T13:48:33;1.88;;;0.75;;
26335;SDS011;14047;50.936;4.654;2023-08-20T13:50:59;1.00;;;0.70;;
26335;SDS011;14047;50.936;4.654;2023-08-20T13:53:25;4.72;;;1.00;;
26335;SDS011;14047;50.936;4.654;2023-08-20T13:55:51;4.13;;;1.00;;
26335;SDS011;14047;50.936;4.654;2023-08-20T13:58:17;1.08;;;0.70;;
26335;SDS011;14047;50.936;4.654;2023-08-20T14:00:43;5.43;;;1.05;;
26335;SDS011;14047;50.936;4.654;2023-08-20T14:03:10;2.85;;;1.00;;
26335;SDS011;14047;50.936;4.654;2023-08-20T14:05:35;2.70;;;0.70;;
26335;SDS011;14047;50.936;4.654;2023-08-20T14:08:02;2.90;;;0.80;;
26335;SDS011;14047;50.936;4.654;2023-08-20T14:10:28;3.15;;;0.95;;
26335;SDS011;14047;50.936;4.654;2023-08-20T14:12:54;4.40;;;1.02;;
26335;SDS011;14047;50.936;4.654;2023-08-20T14:15:20;3.65;;;0.98;;
26335;SDS011;14047;50.936;4.654;2023-08-20T14:17:46;6.80;;;1.00;;
26335;SDS011;14047;50.936;4.654;2023-08-20T14:20:12;5.18;;;1.30;;
26335;SDS011;14047;50.936;4.654;2023-08-20T14:22:39;3.60;;;1.00;;
26335;SDS011;14047;50.936;4.654;2023-08-20T14:25:05;3.22;;;0.63;;
26335;SDS011;14047;50.936;4.654;2023-08-20T14:27:31;3.53;;;0.98;;
26335;SDS011;14047;50.936;4.654;2023-08-20T14:29:57;4.28;;;0.75;;
26335;SDS011;14047;50.936;4.654;2023-08-20T14:32:23;3.75;;;1.20;;
26335;SDS011;14047;50.936;4.654;2023-08-20T14:34:49;3.97;;;0.90;;
26335;SDS011;14047;50.936;4.654;2023-08-20T14:37:15;5.82;;;1.08;;
26335;SDS011;14047;50.936;4.654;2023-08-20T14:39:40;2.72;;;0.93;;
26335;SDS011;14047;50.936;4.654;2023-08-20T14:42:07;1.98;;;0.82;;
26335;SDS011;14047;50.936;4.654;2023-08-20T14:44:33;2.78;;;1.00;;
26335;SDS011;14047;50.936;4.654;2023-08-20T14:46:59;2.70;;;0.85;;
26335;SDS011;14047;50.936;4.654;2023-08-20T14:49:25;1.15;;;0.55;;
26335;SDS011;14047;50.936;4.654;2023-08-20T14:51:51;2.60;;;0.70;;
26335;SDS011;14047;50.936;4.654;2023-08-20T14:54:17;3.15;;;0.90;;
26335;SDS011;14047;50.936;4.654;2023-08-20T14:56:43;3.50;;;1.05;;
26335;SDS011;14047;50.936;4.654;2023-08-20T14:59:10;3.92;;;1.10;;
26335;SDS011;14047;50.936;4.654;2023-08-20T15:01:36;4.65;;;1.02;;
26335;SDS011;14047;50.936;4.654;2023-08-20T15:04:02;3.10;;;0.88;;
26335;SDS011;14047;50.936;4.654;2023-08-20T15:06:28;1.65;;;0.70;;
26335;SDS011;14047;50.936;4.654;2023-08-20T15:08:54;2.60;;;0.90;;
26335;SDS011;14047;50.936;4.654;2023-08-20T15:11:20;2.13;;;0.82;;
26335;SDS011;14047;50.936;4.654;2023-08-20T15:13:46;4.75;;;1.10;;
26335;SDS011;14047;50.936;4.654;2023-08-20T15:16:12;2.10;;;1.17;;